Robin B Ingram — WDB9002 — position and weather

sailwx.info

Track history (hours):
 
Tides and Currents Weather Stations Pressure Air Temp Water Temp Dewpoint Dewpoint Depression Visibility Wind Speed Wind Dir Waves Ship Positions

Robin B Ingram

Owner: INGRAM BARGE COMPANY, Nashville, TN. More information available from US FCC via Universal Licensing System and Coast Guard Vessel Documentation Center.

Last reported at 2017-Jan-13 15:34 UTC. Time now 2017-Jan-18 16:14 UTC.
Position N 38°55' W 090°16'.

Length 39 m; draft 3 m.

Type: Towing. MMSI: 366967670.

Date/timePositionNaut miles runAvg speedWind from/ knotsBaromVisibWave heightAir tempDewpointWater temp
2017-Jan-13 15:34N 38°55' W 090°16'6 6.0
2017-Jan-13 14:34N 38°58' W 090°24'6 5.7
2017-Jan-13 13:34N 38°57' W 090°31'  
2017-Jan-09 01:34N 38°58' W 090°33'4 3.7
2017-Jan-09 00:34N 38°58' W 090°28'5 5.3
2017-Jan-08 23:34N 38°57' W 090°21'6 5.0
2017-Jan-08 22:26N 38°55' W 090°14'  
2017-Jan-04 15:18N 38°55' W 090°14'0 0.3
2017-Jan-04 14:17N 38°55' W 090°14'4 5.3
2017-Jan-04 13:34N 38°56' W 090°19'6 6.3
2017-Jan-04 12:33N 38°58' W 090°27'4 4.4
2017-Jan-04 11:34N 38°58' W 090°32'  
Track history (hours):
 
Tides and Currents Weather Stations Pressure Air Temp Water Temp Dewpoint Dewpoint Depression Visibility Wind Speed Wind Dir Waves Ship Positions

Robin B Ingram

Owner: INGRAM BARGE COMPANY, Nashville, TN. More information available from US FCC via Universal Licensing System and Coast Guard Vessel Documentation Center.

Last reported at 2017-Jan-13 15:34 UTC. Time now 2017-Jan-18 16:14 UTC.
Position N 38°55' W 090°16'.

Length 39 m; draft 3 m.

Type: Towing. MMSI: 366967670.

Date/timePositionNaut miles runAvg speedWind from/ knotsBaromVisibWave heightAir tempDewpointWater temp
2017-Jan-13 15:34N 38°55' W 090°16'6 6.0
2017-Jan-13 14:34N 38°58' W 090°24'6 5.7
2017-Jan-13 13:34N 38°57' W 090°31'  
2017-Jan-09 01:34N 38°58' W 090°33'4 3.7
2017-Jan-09 00:34N 38°58' W 090°28'5 5.3
2017-Jan-08 23:34N 38°57' W 090°21'6 5.0
2017-Jan-08 22:26N 38°55' W 090°14'  
2017-Jan-04 15:18N 38°55' W 090°14'0 0.3
2017-Jan-04 14:17N 38°55' W 090°14'4 5.3
2017-Jan-04 13:34N 38°56' W 090°19'6 6.3
2017-Jan-04 12:33N 38°58' W 090°27'4 4.4
2017-Jan-04 11:34N 38°58' W 090°32'  

Dump ship's entire track history